createdAt,value
2018-12-11T00:01:52.462Z,1.77
2018-12-11T00:04:26.987Z,1.52
2018-12-11T00:07:01.423Z,1.60
2018-12-11T00:09:35.817Z,1.82
2018-12-11T00:12:10.179Z,2.02
2018-12-11T00:14:44.632Z,2.50
2018-12-11T00:17:19.187Z,2.40
2018-12-11T00:19:53.693Z,2.00
2018-12-11T00:22:28.036Z,1.87
2018-12-11T00:25:02.566Z,2.20
2018-12-11T00:27:37.051Z,1.85
2018-12-11T00:30:11.496Z,1.55
2018-12-11T00:32:45.872Z,1.92
2018-12-11T00:35:20.225Z,1.70
2018-12-11T00:37:54.580Z,2.00
2018-12-11T00:40:29.187Z,1.47
2018-12-11T00:43:03.624Z,1.80
2018-12-11T00:45:38.071Z,1.70
2018-12-11T00:48:12.506Z,9.98
2018-12-11T00:50:47.037Z,9.08
2018-12-11T00:53:21.472Z,12.07
2018-12-11T00:55:55.750Z,5.53
2018-12-11T00:58:30.290Z,1.90
2018-12-11T01:01:04.826Z,2.08
2018-12-11T01:03:39.229Z,1.80
2018-12-11T01:06:13.781Z,1.80
2018-12-11T01:08:48.265Z,2.10
2018-12-11T01:11:22.769Z,1.80
2018-12-11T01:13:57.091Z,1.35
2018-12-11T01:16:31.585Z,1.57
2018-12-11T01:19:06.187Z,1.50
2018-12-11T01:21:40.510Z,1.80
2018-12-11T01:24:14.784Z,1.90
2018-12-11T01:26:49.414Z,1.42
2018-12-11T01:29:23.936Z,1.98
2018-12-11T01:31:58.493Z,2.00
2018-12-11T01:34:32.893Z,1.90
2018-12-11T01:37:07.308Z,1.50
2018-12-11T01:39:41.763Z,1.95
2018-12-11T01:42:16.113Z,1.17
2018-12-11T01:44:50.570Z,1.60
2018-12-11T01:47:25.050Z,1.40
2018-12-11T01:49:59.438Z,1.52
2018-12-11T01:52:33.824Z,10.70
2018-12-11T01:55:08.398Z,10.05
2018-12-11T01:57:42.899Z,6.58
2018-12-11T02:00:18.326Z,4.03
2018-12-11T02:02:52.782Z,2.37
2018-12-11T02:05:27.175Z,3.65
2018-12-11T02:08:01.568Z,1.37
2018-12-11T02:10:36.004Z,1.60
2018-12-11T02:13:10.300Z,1.70
2018-12-11T02:15:44.604Z,1.47
2018-12-11T02:18:18.950Z,1.92
2018-12-11T02:20:53.264Z,1.50
2018-12-11T02:23:27.720Z,1.30
2018-12-11T02:26:02.074Z,2.02
2018-12-11T02:28:36.434Z,1.57
2018-12-11T02:31:10.754Z,1.92
2018-12-11T02:33:45.297Z,2.15
2018-12-11T02:36:19.758Z,1.67
2018-12-11T02:38:54.132Z,1.25
2018-12-11T02:41:28.465Z,1.32
2018-12-11T02:44:03.250Z,1.00
2018-12-11T02:46:37.782Z,1.25
2018-12-11T02:49:12.296Z,1.10
2018-12-11T02:51:46.567Z,0.85
2018-12-11T02:54:21.037Z,4.78
2018-12-11T02:56:55.396Z,7.30
2018-12-11T02:59:29.782Z,6.40
2018-12-11T03:02:04.489Z,5.90
2018-12-11T03:04:39.122Z,5.10
2018-12-11T03:07:13.555Z,2.42
2018-12-11T03:09:47.997Z,1.32
2018-12-11T03:12:22.508Z,1.30
2018-12-11T03:14:56.845Z,1.10
2018-12-11T03:17:31.239Z,1.77
2018-12-11T03:20:05.724Z,1.10
2018-12-11T03:22:42.247Z,1.05
2018-12-11T03:25:16.625Z,1.40
2018-12-11T03:27:50.980Z,0.85
2018-12-11T03:30:25.409Z,1.20
2018-12-11T03:32:59.806Z,1.45
2018-12-11T03:35:35.673Z,0.80
2018-12-11T03:38:10.061Z,1.77
2018-12-11T03:40:44.503Z,2.27
2018-12-11T03:43:18.780Z,2.12
2018-12-11T03:45:54.159Z,1.70
2018-12-11T03:48:28.419Z,1.30
2018-12-11T03:51:02.745Z,1.25
2018-12-11T03:53:37.161Z,1.70
2018-12-11T03:56:11.502Z,1.52
2018-12-11T03:58:45.951Z,3.62
2018-12-11T04:01:20.350Z,3.58
2018-12-11T04:03:54.907Z,8.15
2018-12-11T04:06:29.354Z,3.22
2018-12-11T04:09:05.504Z,1.40
2018-12-11T04:11:39.940Z,1.45
2018-12-11T04:14:14.616Z,1.80
2018-12-11T04:16:49.145Z,1.30
2018-12-11T04:19:24.445Z,1.57
2018-12-11T04:21:58.690Z,2.00
2018-12-11T04:24:33.223Z,1.87
2018-12-11T04:27:07.487Z,2.35
2018-12-11T04:29:41.903Z,2.08
2018-12-11T04:32:16.345Z,1.70
2018-12-11T04:34:50.728Z,2.08
2018-12-11T04:37:25.201Z,2.12
2018-12-11T04:39:59.733Z,2.05
2018-12-11T04:42:34.124Z,2.58
2018-12-11T04:45:08.536Z,2.70
2018-12-11T04:47:43.058Z,2.90
2018-12-11T04:50:17.589Z,2.42
2018-12-11T04:52:51.953Z,2.87
2018-12-11T04:55:26.281Z,3.10
2018-12-11T04:58:00.810Z,3.05
2018-12-11T05:00:35.141Z,3.98
2018-12-11T05:03:09.533Z,6.55
2018-12-11T05:05:44.061Z,6.50
2018-12-11T05:08:18.574Z,5.37
2018-12-11T05:10:54.197Z,4.22
2018-12-11T05:13:28.540Z,5.80
2018-12-11T05:16:02.923Z,3.00
2018-12-11T05:18:37.430Z,2.25
2018-12-11T05:21:11.837Z,2.17
2018-12-11T05:23:46.110Z,2.37
2018-12-11T05:26:20.575Z,1.67
2018-12-11T05:28:55.028Z,2.00
2018-12-11T05:31:29.446Z,2.02
2018-12-11T05:34:03.843Z,2.17
2018-12-11T05:36:38.486Z,1.45
2018-12-11T05:39:12.908Z,1.80
2018-12-11T05:41:47.445Z,1.57
2018-12-11T05:44:21.797Z,1.87
2018-12-11T05:46:56.201Z,1.70
2018-12-11T05:49:30.625Z,1.87
2018-12-11T05:52:05.164Z,1.60
2018-12-11T05:54:39.423Z,1.98
2018-12-11T05:57:13.797Z,3.22
2018-12-11T05:59:48.176Z,1.80
2018-12-11T06:02:22.498Z,2.17
2018-12-11T06:04:57.093Z,2.45
2018-12-11T06:07:31.416Z,7.50
2018-12-11T06:10:07.501Z,2.20
2018-12-11T06:12:41.789Z,4.40
2018-12-11T06:15:16.317Z,10.03
2018-12-11T06:17:50.802Z,4.30
2018-12-11T06:20:25.121Z,3.67
2018-12-11T06:22:59.545Z,3.65
2018-12-11T06:25:33.836Z,1.50
2018-12-11T06:28:08.287Z,1.50
2018-12-11T06:30:42.673Z,2.30
2018-12-11T06:33:17.044Z,5.17
2018-12-11T06:35:51.369Z,10.53
2018-12-11T06:38:25.823Z,14.03
2018-12-11T06:41:00.240Z,10.98
2018-12-11T06:43:34.572Z,6.65
2018-12-11T06:46:09.066Z,1.60
2018-12-11T06:48:43.573Z,2.20
2018-12-11T06:51:18.121Z,1.92
2018-12-11T06:53:52.464Z,3.35
2018-12-11T06:56:26.743Z,1.80
2018-12-11T06:59:01.258Z,1.57
2018-12-11T07:01:35.732Z,1.87
2018-12-11T07:04:10.063Z,2.02
2018-12-11T07:06:44.592Z,1.92
2018-12-11T07:09:19.033Z,2.95
2018-12-11T07:11:53.399Z,3.05
2018-12-11T07:14:27.953Z,1.37
2018-12-11T07:17:02.407Z,2.90
2018-12-11T07:19:36.832Z,7.53
2018-12-11T07:22:11.243Z,7.80
2018-12-11T07:24:45.614Z,13.80
2018-12-11T07:27:20.048Z,7.80
2018-12-11T07:29:54.621Z,4.12
2018-12-11T07:32:28.933Z,1.90
2018-12-11T07:35:03.660Z,4.08
2018-12-11T07:37:38.071Z,2.12
2018-12-11T07:40:12.480Z,2.37
2018-12-11T07:42:46.884Z,1.72
2018-12-11T07:45:21.185Z,3.72
2018-12-11T07:47:55.608Z,4.15
2018-12-11T07:50:30.158Z,12.60
2018-12-11T07:53:06.466Z,7.03
2018-12-11T07:55:40.942Z,6.53
2018-12-11T07:58:15.214Z,8.20
2018-12-11T08:00:49.561Z,4.78
2018-12-11T08:03:23.808Z,11.50
2018-12-11T08:05:58.116Z,14.20
2018-12-11T08:08:32.477Z,10.10
2018-12-11T08:11:06.987Z,13.60
2018-12-11T08:13:41.293Z,5.67
2018-12-11T08:16:16.926Z,4.00
2018-12-11T08:18:51.905Z,9.70
2018-12-11T08:21:26.611Z,4.37
2018-12-11T08:24:00.958Z,2.20
2018-12-11T08:26:35.359Z,6.25
2018-12-11T08:29:09.920Z,3.30
2018-12-11T08:31:44.304Z,6.50
2018-12-11T08:34:18.765Z,6.10
2018-12-11T08:36:53.200Z,5.53
2018-12-11T08:39:27.674Z,4.55
2018-12-11T08:42:02.140Z,3.30
2018-12-11T08:44:36.703Z,4.45
2018-12-11T08:47:11.337Z,5.03
2018-12-11T08:49:45.645Z,4.17
2018-12-11T08:52:20.405Z,3.45
2018-12-11T08:54:54.741Z,2.87
2018-12-11T08:57:29.179Z,3.20
2018-12-11T09:00:04.051Z,3.35
2018-12-11T09:02:38.446Z,1.30
2018-12-11T09:05:12.955Z,2.52
2018-12-11T09:07:47.292Z,3.55
2018-12-11T09:10:21.725Z,4.20
2018-12-11T09:12:56.085Z,9.53
2018-12-11T09:15:30.381Z,3.65
2018-12-11T09:18:04.684Z,4.40
2018-12-11T09:20:39.144Z,3.08
2018-12-11T09:23:13.593Z,4.17
2018-12-11T09:25:48.091Z,1.55
2018-12-11T09:28:22.456Z,2.90
2018-12-11T09:30:57.000Z,1.98
2018-12-11T09:33:31.468Z,3.30
2018-12-11T09:36:05.996Z,2.50
2018-12-11T09:38:40.670Z,4.75
2018-12-11T09:41:15.039Z,8.80
2018-12-11T09:43:49.508Z,5.47
2018-12-11T09:46:24.029Z,6.05
2018-12-11T09:48:58.463Z,3.40
2018-12-11T09:51:33.170Z,1.60
2018-12-11T09:54:07.443Z,1.67
2018-12-11T09:56:41.973Z,1.70
2018-12-11T09:59:16.294Z,1.25
2018-12-11T10:01:50.686Z,1.62
2018-12-11T10:04:25.117Z,1.42
2018-12-11T10:06:59.419Z,1.65
2018-12-11T10:09:33.775Z,1.20
2018-12-11T10:12:08.124Z,1.15
2018-12-11T10:14:42.523Z,1.35
2018-12-11T10:17:17.060Z,1.90
2018-12-11T10:19:51.436Z,1.37
2018-12-11T10:22:25.894Z,1.15
2018-12-11T10:25:00.306Z,0.85
2018-12-11T10:27:34.643Z,1.20
2018-12-11T10:30:10.309Z,0.93
2018-12-11T10:32:49.162Z,0.70
2018-12-11T10:35:23.737Z,1.10
2018-12-11T10:37:58.222Z,1.82
2018-12-11T10:40:32.674Z,3.20
2018-12-11T10:43:07.180Z,7.92
2018-12-11T10:45:41.542Z,11.28
2018-12-11T10:48:16.006Z,5.17
2018-12-11T10:50:50.473Z,4.78
2018-12-11T10:53:24.941Z,1.00
2018-12-11T10:55:59.256Z,0.78
2018-12-11T10:58:33.798Z,1.05
2018-12-11T11:01:13.640Z,2.00
2018-12-11T11:03:48.034Z,1.32
2018-12-11T11:06:22.613Z,1.00
2018-12-11T11:08:57.004Z,1.80
2018-12-11T11:11:31.364Z,0.98
2018-12-11T11:14:05.738Z,1.30
2018-12-11T11:16:40.072Z,1.35
2018-12-11T11:19:14.407Z,1.40
2018-12-11T11:21:48.797Z,1.30
2018-12-11T11:24:23.372Z,1.57
2018-12-11T11:26:57.969Z,1.30
2018-12-11T11:29:32.454Z,1.75
2018-12-11T11:32:06.760Z,1.50
2018-12-11T11:34:41.194Z,0.90
2018-12-11T11:37:15.514Z,2.90
2018-12-11T11:39:49.976Z,1.35
2018-12-11T11:42:24.672Z,1.60
2018-12-11T11:44:59.351Z,3.90
2018-12-11T11:47:33.667Z,5.35
2018-12-11T11:50:11.220Z,11.40
2018-12-11T11:52:45.646Z,5.12
2018-12-11T11:55:20.192Z,5.28
2018-12-11T11:57:54.466Z,1.60
2018-12-11T12:00:28.876Z,1.15
2018-12-11T12:03:03.348Z,1.12
2018-12-11T12:05:37.787Z,1.42
2018-12-11T12:08:12.170Z,1.17
2018-12-11T12:10:46.769Z,0.90
2018-12-11T12:13:21.356Z,0.95
2018-12-11T12:15:55.745Z,0.85
2018-12-11T12:18:30.129Z,1.15
2018-12-11T12:21:04.582Z,1.20
2018-12-11T12:23:38.985Z,0.70
2018-12-11T12:26:13.430Z,0.95
2018-12-11T12:28:47.788Z,0.90
2018-12-11T12:31:23.604Z,1.40
2018-12-11T12:33:58.110Z,0.95
2018-12-11T12:36:32.545Z,1.40
2018-12-11T12:39:08.182Z,5.30
2018-12-11T12:41:42.705Z,1.20
2018-12-11T12:44:17.230Z,0.90
2018-12-11T12:46:51.524Z,3.72
2018-12-11T12:49:25.816Z,4.72
2018-12-11T12:52:00.471Z,8.05
2018-12-11T12:54:34.852Z,5.28
2018-12-11T12:57:09.267Z,2.10
2018-12-11T12:59:43.653Z,1.60
2018-12-11T13:02:18.053Z,3.33
2018-12-11T13:04:52.507Z,1.50
2018-12-11T13:07:26.845Z,1.60
2018-12-11T13:10:01.284Z,1.82
2018-12-11T13:12:35.878Z,1.75
2018-12-11T13:15:10.406Z,1.30
2018-12-11T13:17:44.838Z,4.53
2018-12-11T13:20:19.334Z,1.70
2018-12-11T13:22:53.804Z,0.80
2018-12-11T13:25:28.043Z,1.40
2018-12-11T13:28:02.417Z,1.40
2018-12-11T13:30:37.271Z,1.20
2018-12-11T13:33:11.659Z,1.55
2018-12-11T13:35:46.280Z,1.10
2018-12-11T13:38:20.582Z,1.05
2018-12-11T13:40:55.171Z,1.52
2018-12-11T13:43:29.610Z,3.90
2018-12-11T13:46:04.004Z,1.20
2018-12-11T13:48:38.801Z,4.47
2018-12-11T13:51:13.088Z,1.20
2018-12-11T13:53:47.432Z,2.00
2018-12-11T13:56:21.754Z,1.00
2018-12-11T13:58:56.093Z,8.08
2018-12-11T14:01:30.609Z,7.33
2018-12-11T14:04:05.099Z,1.87
2018-12-11T14:06:39.453Z,1.40
2018-12-11T14:09:19.460Z,1.15
2018-12-11T14:11:53.753Z,3.65
2018-12-11T14:14:28.257Z,1.67
2018-12-11T14:17:02.800Z,1.80
2018-12-11T14:19:37.356Z,1.75
2018-12-11T14:22:11.668Z,2.80
2018-12-11T14:24:45.952Z,5.62
2018-12-11T14:27:20.263Z,7.47
2018-12-11T14:29:54.725Z,5.25
2018-12-11T14:32:29.213Z,3.30
2018-12-11T14:35:04.178Z,3.35
2018-12-11T14:37:38.700Z,2.52
2018-12-11T14:40:13.320Z,4.53
2018-12-11T14:42:47.680Z,5.72
2018-12-11T14:45:22.028Z,2.00
2018-12-11T14:47:56.521Z,10.30
2018-12-11T14:50:30.821Z,13.05
2018-12-11T14:53:05.264Z,7.85
2018-12-11T14:55:39.783Z,5.15
2018-12-11T14:58:14.142Z,4.05
2018-12-11T15:00:48.645Z,3.22
2018-12-11T15:03:23.008Z,2.37
2018-12-11T15:05:57.504Z,2.70
2018-12-11T15:08:32.100Z,2.72
2018-12-11T15:11:06.416Z,2.90
2018-12-11T15:13:40.947Z,2.80
2018-12-11T15:16:15.696Z,2.60
2018-12-11T15:18:50.033Z,3.25
2018-12-11T15:21:24.359Z,3.87
2018-12-11T15:23:58.889Z,7.60
2018-12-11T15:26:33.389Z,3.90
2018-12-11T15:29:07.779Z,6.53
2018-12-11T15:31:42.187Z,7.00
2018-12-11T15:34:16.509Z,7.95
2018-12-11T15:36:50.836Z,13.00
2018-12-11T15:39:25.444Z,5.85
2018-12-11T15:41:59.956Z,5.67
2018-12-11T15:44:34.236Z,6.42
2018-12-11T15:47:08.801Z,3.42
2018-12-11T15:49:43.121Z,7.00
2018-12-11T15:52:17.552Z,22.13
2018-12-11T15:54:51.864Z,12.25
2018-12-11T15:57:26.347Z,25.60
2018-12-11T16:00:00.844Z,8.08
2018-12-11T16:02:35.172Z,5.45
2018-12-11T16:05:09.652Z,4.83
2018-12-11T16:07:44.144Z,3.27
2018-12-11T16:10:18.474Z,3.67
2018-12-11T16:12:53.203Z,4.33
2018-12-11T16:15:27.502Z,3.72
2018-12-11T16:18:01.802Z,4.33
2018-12-11T16:20:36.065Z,4.12
2018-12-11T16:23:10.442Z,5.75
2018-12-11T16:25:44.929Z,4.83
2018-12-11T16:28:19.273Z,4.22
2018-12-11T16:30:53.696Z,6.87
2018-12-11T16:33:28.149Z,7.40
2018-12-11T16:36:02.610Z,7.30
2018-12-11T16:38:37.104Z,3.77
2018-12-11T16:41:11.421Z,6.67
2018-12-11T16:43:45.821Z,5.03
2018-12-11T16:46:20.420Z,4.65
2018-12-11T16:48:54.732Z,5.28
2018-12-11T16:51:29.119Z,3.25
2018-12-11T16:54:03.397Z,3.55
2018-12-11T16:56:37.680Z,3.12
2018-12-11T16:59:12.120Z,5.35
2018-12-11T17:01:46.639Z,5.53
2018-12-11T17:04:21.067Z,11.85
2018-12-11T17:06:55.403Z,10.65
2018-12-11T17:09:29.939Z,6.87
2018-12-11T17:12:04.857Z,4.90
2018-12-11T17:14:39.416Z,5.97
2018-12-11T17:17:13.841Z,6.62
2018-12-11T17:19:48.131Z,9.65
2018-12-11T17:22:22.628Z,9.55
2018-12-11T17:24:57.069Z,7.58
2018-12-11T17:27:31.458Z,6.55
2018-12-11T17:30:06.757Z,4.25
2018-12-11T17:32:41.155Z,4.45
2018-12-11T17:35:15.621Z,6.72
2018-12-11T17:37:50.164Z,6.20
2018-12-11T17:40:24.701Z,5.90
2018-12-11T17:42:59.069Z,7.85
2018-12-11T17:45:33.552Z,9.90
2018-12-11T17:48:09.026Z,14.10
2018-12-11T17:50:43.469Z,14.20
2018-12-11T17:53:17.893Z,9.35
2018-12-11T17:55:52.422Z,7.28
2018-12-11T17:58:26.907Z,10.60
2018-12-11T18:01:01.311Z,9.00
2018-12-11T18:03:35.633Z,12.40
2018-12-11T18:06:09.930Z,16.77
2018-12-11T18:08:44.384Z,13.13
2018-12-11T18:11:18.652Z,17.10
2018-12-11T18:13:53.031Z,17.95
2018-12-11T18:16:27.300Z,9.75
2018-12-11T18:19:01.744Z,9.63
2018-12-11T18:21:36.072Z,13.65
2018-12-11T18:24:10.476Z,7.75
2018-12-11T18:26:44.824Z,12.13
2018-12-11T18:29:19.270Z,9.30
2018-12-11T18:31:53.932Z,7.60
2018-12-11T18:34:28.465Z,4.53
2018-12-11T18:37:03.136Z,4.90
2018-12-11T18:39:37.537Z,4.87
2018-12-11T18:42:12.045Z,3.75
2018-12-11T18:44:46.341Z,7.25
2018-12-11T18:47:20.611Z,6.72
2018-12-11T18:49:55.013Z,7.00
2018-12-11T18:52:29.394Z,6.95
2018-12-11T18:55:04.164Z,7.12
2018-12-11T18:57:38.679Z,13.45
2018-12-11T19:00:13.184Z,6.78
2018-12-11T19:02:47.846Z,9.90
2018-12-11T19:05:22.283Z,6.90
2018-12-11T19:07:56.833Z,8.23
2018-12-11T19:10:31.364Z,8.73
2018-12-11T19:13:05.741Z,5.78
2018-12-11T19:15:40.136Z,3.40
2018-12-11T19:18:14.584Z,4.25
2018-12-11T19:20:49.169Z,4.37
2018-12-11T19:23:31.092Z,5.35
2018-12-11T19:26:05.821Z,5.55
2018-12-11T19:28:40.444Z,4.50
2018-12-11T19:31:14.720Z,9.25
2018-12-11T19:33:49.231Z,12.85
2018-12-11T19:36:23.650Z,14.03
2018-12-11T19:38:58.108Z,13.60
2018-12-11T19:41:33.419Z,11.53
2018-12-11T19:44:07.901Z,9.53
2018-12-11T19:46:42.265Z,14.00
2018-12-11T19:49:16.716Z,23.40
2018-12-11T19:51:51.327Z,15.95
2018-12-11T19:54:26.114Z,8.25
2018-12-11T19:57:00.557Z,6.30
2018-12-11T19:59:35.813Z,11.30
2018-12-11T20:02:10.232Z,9.63
2018-12-11T20:04:44.563Z,8.68
2018-12-11T20:07:18.976Z,7.80
2018-12-11T20:09:59.003Z,8.80
2018-12-11T20:12:33.594Z,8.33
2018-12-11T20:15:09.325Z,5.50
2018-12-11T20:17:43.679Z,3.95
2018-12-11T20:20:26.419Z,7.05
2018-12-11T20:23:00.757Z,6.42
2018-12-11T20:25:35.408Z,7.45
2018-12-11T20:28:09.848Z,7.83
2018-12-11T20:30:44.154Z,16.87
2018-12-11T20:33:18.743Z,9.50
2018-12-11T20:35:53.271Z,15.53
2018-12-11T20:38:27.716Z,6.15
2018-12-11T20:41:02.127Z,7.40
2018-12-11T20:43:36.512Z,4.17
2018-12-11T20:46:10.825Z,4.00
2018-12-11T20:48:45.337Z,9.58
2018-12-11T20:51:20.015Z,14.43
2018-12-11T20:53:54.633Z,10.18
2018-12-11T20:56:29.064Z,11.03
2018-12-11T20:59:03.634Z,8.18
2018-12-11T21:01:38.299Z,9.45
2018-12-11T21:04:12.777Z,22.48
2018-12-11T21:06:47.673Z,30.72
2018-12-11T21:09:22.155Z,16.37
2018-12-11T21:11:56.469Z,12.65
2018-12-11T21:14:30.993Z,5.10
2018-12-11T21:17:05.349Z,3.80
2018-12-11T21:19:39.987Z,4.30
2018-12-11T21:22:14.432Z,4.33
2018-12-11T21:24:48.751Z,3.80
2018-12-11T21:27:23.095Z,18.30
2018-12-11T21:29:57.516Z,19.17
2018-12-11T21:32:31.968Z,23.98
2018-12-11T21:35:08.111Z,17.70
2018-12-11T21:37:42.494Z,11.28
2018-12-11T21:40:17.060Z,13.25
2018-12-11T21:42:51.476Z,19.30
2018-12-11T21:45:25.805Z,16.00
2018-12-11T21:48:00.310Z,10.55
2018-12-11T21:50:34.880Z,7.78
2018-12-11T21:53:09.320Z,6.60
2018-12-11T21:55:43.684Z,7.92
2018-12-11T21:58:18.292Z,7.28
2018-12-11T22:00:52.729Z,6.62
2018-12-11T22:03:27.439Z,5.90
2018-12-11T22:06:02.177Z,9.35
2018-12-11T22:08:36.650Z,5.92
2018-12-11T22:11:11.217Z,5.90
2018-12-11T22:13:45.848Z,4.45
2018-12-11T22:16:20.288Z,4.20
2018-12-11T22:18:54.780Z,6.30
2018-12-11T22:21:29.113Z,6.40
2018-12-11T22:24:03.441Z,8.00
2018-12-11T22:26:37.733Z,6.65
2018-12-11T22:29:12.171Z,7.78
2018-12-11T22:31:46.814Z,8.23
2018-12-11T22:34:21.215Z,8.33
2018-12-11T22:36:55.680Z,6.20
2018-12-11T22:39:30.049Z,5.97
2018-12-11T22:42:04.464Z,5.28
2018-12-11T22:44:39.910Z,7.12
2018-12-11T22:47:14.488Z,6.55
2018-12-11T22:49:48.980Z,9.18
2018-12-11T22:52:23.796Z,9.38
2018-12-11T22:54:58.117Z,11.15
2018-12-11T22:57:32.688Z,6.00
2018-12-11T23:00:08.100Z,8.23
2018-12-11T23:02:42.368Z,4.10
2018-12-11T23:05:16.741Z,3.72
2018-12-11T23:07:51.211Z,2.85
2018-12-11T23:10:25.530Z,3.05
2018-12-11T23:13:00.101Z,4.05
2018-12-11T23:15:34.735Z,3.45
2018-12-11T23:18:09.019Z,3.30
2018-12-11T23:20:43.447Z,2.65
2018-12-11T23:23:17.836Z,3.67
2018-12-11T23:25:52.270Z,3.55
2018-12-11T23:28:26.752Z,3.47
2018-12-11T23:31:01.190Z,3.35
2018-12-11T23:33:35.691Z,2.87
2018-12-11T23:36:10.080Z,4.10
2018-12-11T23:38:44.379Z,3.55
2018-12-11T23:41:18.884Z,3.35
2018-12-11T23:43:53.162Z,3.08
2018-12-11T23:46:27.585Z,3.15
2018-12-11T23:49:01.877Z,3.95
2018-12-11T23:51:36.212Z,2.90
2018-12-11T23:54:10.487Z,3.67
2018-12-11T23:56:44.973Z,4.10
2018-12-11T23:59:19.519Z,7.80
